createdAt,value
2023-10-09T00:00:39.154Z,96202.71
2023-10-09T00:03:29.372Z,96203.99
2023-10-09T00:05:58.571Z,96206.67
2023-10-09T00:08:33.307Z,96202.11
2023-10-09T00:11:18.258Z,96197.90
2023-10-09T00:13:50.825Z,96203.23
2023-10-09T00:16:37.909Z,96200.45
2023-10-09T00:19:31.431Z,96198.95
2023-10-09T00:22:05.829Z,96193.46
2023-10-09T00:24:34.336Z,96195.40
2023-10-09T00:27:22.954Z,96194.56
2023-10-09T00:29:56.150Z,96200.98
2023-10-09T00:32:28.472Z,96206.95
2023-10-09T00:35:00.644Z,96210.56
2023-10-09T00:37:35.377Z,96203.11
2023-10-09T00:40:13.954Z,96202.29
2023-10-09T00:42:42.068Z,96194.56
2023-10-09T00:45:11.776Z,96201.35
2023-10-09T00:47:42.289Z,96197.30
2023-10-09T00:50:11.837Z,96195.90
2023-10-09T00:52:44.257Z,96190.53
2023-10-09T00:55:22.119Z,96189.36
2023-10-09T00:57:59.675Z,96184.27
2023-10-09T01:00:46.513Z,96177.81
2023-10-09T01:03:18.712Z,96183.62
2023-10-09T01:06:00.176Z,96180.46
2023-10-09T01:08:44.960Z,96176.86
2023-10-09T01:11:26.458Z,96181.77
2023-10-09T01:13:55.244Z,96183.82
2023-10-09T01:16:24.570Z,96185.67
2023-10-09T01:18:58.058Z,96178.61
2023-10-09T01:21:28.238Z,96180.63
2023-10-09T01:24:05.020Z,96177.73
2023-10-09T01:26:41.084Z,96173.05
2023-10-09T01:29:16.141Z,96173.58
2023-10-09T01:31:53.543Z,96168.98
2023-10-09T01:34:39.833Z,96161.02
2023-10-09T01:37:30.618Z,96160.52
2023-10-09T01:40:20.386Z,96161.06
2023-10-09T01:42:48.544Z,96162.90
2023-10-09T01:45:16.726Z,96159.33
2023-10-09T01:47:53.475Z,96157.51
2023-10-09T01:50:23.545Z,96158.40
2023-10-09T01:52:55.271Z,96164.07
2023-10-09T01:55:49.755Z,96159.29
2023-10-09T01:58:28.973Z,96156.98
2023-10-09T02:00:57.770Z,96162.64
2023-10-09T02:03:28.107Z,96172.02
2023-10-09T02:06:04.612Z,96171.80
2023-10-09T02:08:36.982Z,96170.10
2023-10-09T02:11:05.162Z,96167.52
2023-10-09T02:13:36.420Z,96163.21
2023-10-09T02:16:18.060Z,96158.99
2023-10-09T02:18:57.237Z,96158.50
2023-10-09T02:21:35.673Z,96158.59
2023-10-09T02:24:27.574Z,96160.16
2023-10-09T02:26:56.016Z,96158.83
2023-10-09T02:29:25.599Z,96165.05
2023-10-09T02:32:13.999Z,96151.11
2023-10-09T02:34:42.997Z,96150.21
2023-10-09T02:37:14.165Z,96150.40
2023-10-09T02:39:48.553Z,96153.80
2023-10-09T02:42:16.651Z,96148.64
2023-10-09T02:44:47.997Z,96142.39
2023-10-09T02:47:31.041Z,96146.35
2023-10-09T02:50:07.943Z,96140.05
2023-10-09T02:52:42.131Z,96140.09
2023-10-09T02:55:24.015Z,96140.20
2023-10-09T02:58:05.512Z,96134.38
2023-10-09T03:00:37.527Z,96130.28
2023-10-09T03:03:08.926Z,96123.87
2023-10-09T03:05:43.840Z,96127.91
2023-10-09T03:08:13.654Z,96132.96
2023-10-09T03:10:41.884Z,96134.02
2023-10-09T03:13:09.948Z,96133.45
2023-10-09T03:15:40.199Z,96138.13
2023-10-09T03:18:08.390Z,96140.32
2023-10-09T03:20:37.753Z,96136.71
2023-10-09T03:23:09.031Z,96141.86
2023-10-09T03:25:39.053Z,96142.91
2023-10-09T03:28:08.142Z,96140.88
2023-10-09T03:30:38.723Z,96131.89
2023-10-09T03:33:08.328Z,96127.16
2023-10-09T03:35:37.562Z,96130.56
2023-10-09T03:38:18.400Z,96137.02
2023-10-09T03:40:50.157Z,96135.58
2023-10-09T03:43:18.516Z,96129.38
2023-10-09T03:45:50.607Z,96116.24
2023-10-09T03:48:33.315Z,96109.21
2023-10-09T03:51:12.433Z,96111.98
2023-10-09T03:53:40.941Z,96120.70
2023-10-09T03:56:17.331Z,96117.30
2023-10-09T03:58:48.196Z,96105.16
2023-10-09T04:01:26.354Z,96100.73
2023-10-09T04:04:01.617Z,96096.55
2023-10-09T04:06:34.760Z,96093.57
2023-10-09T04:09:22.392Z,96095.20
2023-10-09T04:12:18.892Z,96097.59
2023-10-09T04:14:56.559Z,96094.73
2023-10-09T04:17:30.763Z,96096.91
2023-10-09T04:20:17.709Z,96088.21
2023-10-09T04:22:52.615Z,96097.91
2023-10-09T04:25:29.867Z,96090.64
2023-10-09T04:28:11.400Z,96086.89
2023-10-09T04:30:57.089Z,96094.95
2023-10-09T04:33:34.716Z,96110.36
2023-10-09T04:36:18.020Z,96119.59
2023-10-09T04:39:01.642Z,96124.61
2023-10-09T04:41:34.773Z,96119.92
2023-10-09T04:44:22.094Z,96122.66
2023-10-09T04:47:12.310Z,96117.45
2023-10-09T04:49:48.972Z,96103.98
2023-10-09T04:52:31.210Z,96108.75
2023-10-09T04:55:19.337Z,96104.39
2023-10-09T04:58:02.870Z,96101.95
2023-10-09T05:00:31.684Z,96112.30
2023-10-09T05:03:12.420Z,96126.79
2023-10-09T05:05:42.865Z,96118.94
2023-10-09T05:08:28.778Z,96103.65
2023-10-09T05:11:18.138Z,96100.29
2023-10-09T05:13:59.262Z,96107.23
2023-10-09T05:16:28.174Z,96116.56
2023-10-09T05:18:58.598Z,96112.38
2023-10-09T05:21:38.265Z,96113.20
2023-10-09T05:24:14.013Z,96110.44
2023-10-09T05:26:49.464Z,96122.07
2023-10-09T05:29:35.849Z,96137.19
2023-10-09T05:32:15.470Z,96129.14
2023-10-09T05:35:00.778Z,96122.16
2023-10-09T05:37:36.233Z,96122.48
2023-10-09T05:40:09.746Z,96124.66
2023-10-09T05:42:38.085Z,96128.64
2023-10-09T05:45:26.356Z,96128.89
2023-10-09T05:47:57.648Z,96126.31
2023-10-09T05:50:28.260Z,96129.20
2023-10-09T05:52:58.006Z,96129.39
2023-10-09T05:55:46.244Z,96131.52
2023-10-09T05:58:40.770Z,96124.68
2023-10-09T06:01:27.602Z,96119.35
2023-10-09T06:03:56.068Z,96128.05
2023-10-09T06:06:43.409Z,96129.46
2023-10-09T06:09:16.676Z,96139.30
2023-10-09T06:11:50.196Z,96137.33
2023-10-09T06:14:46.874Z,96136.54
2023-10-09T06:17:14.975Z,96147.27
2023-10-09T06:19:46.442Z,96146.45
2023-10-09T06:22:40.660Z,96143.73
2023-10-09T06:25:13.966Z,96135.80
2023-10-09T06:27:58.447Z,96131.78
2023-10-09T06:30:27.476Z,96129.01
2023-10-09T06:33:04.658Z,96131.41
2023-10-09T06:35:37.409Z,96133.34
2023-10-09T06:38:22.988Z,96135.59
2023-10-09T06:41:07.599Z,96123.39
2023-10-09T06:43:38.425Z,96122.27
2023-10-09T06:46:39.390Z,96111.30
2023-10-09T06:49:27.688Z,96102.83
2023-10-09T06:52:15.986Z,96092.98
2023-10-09T06:54:51.292Z,96096.70
2023-10-09T06:57:39.660Z,96091.48
2023-10-09T07:00:27.009Z,96084.73
2023-10-09T07:02:55.178Z,96079.38
2023-10-09T07:05:38.693Z,96078.55
2023-10-09T07:08:26.934Z,96076.27
2023-10-09T07:11:15.074Z,96077.39
2023-10-09T07:13:45.514Z,96076.69
2023-10-09T07:16:29.516Z,96071.48
2023-10-09T07:19:10.937Z,96069.48
2023-10-09T07:21:40.230Z,96062.77
2023-10-09T07:24:18.824Z,96062.73
2023-10-09T07:26:54.548Z,96069.14
2023-10-09T07:29:23.228Z,96069.77
2023-10-09T07:31:58.722Z,96069.38
2023-10-09T07:34:33.262Z,96066.93
2023-10-09T07:37:05.392Z,96061.20
2023-10-09T07:39:37.636Z,96054.50
2023-10-09T07:42:19.915Z,96056.33
2023-10-09T07:44:54.227Z,96043.02
2023-10-09T07:47:45.718Z,96020.55
2023-10-09T07:50:13.825Z,96010.52
2023-10-09T07:52:46.565Z,96008.69
2023-10-09T07:55:27.726Z,96006.13
2023-10-09T07:57:56.096Z,96010.38
2023-10-09T08:00:43.111Z,96015.73
2023-10-09T08:03:25.436Z,96011.85
2023-10-09T08:05:55.461Z,96010.06
2023-10-09T08:08:38.354Z,96009.94
2023-10-09T08:11:29.065Z,96014.83
2023-10-09T08:13:57.417Z,96019.79
2023-10-09T08:16:37.792Z,96024.19
2023-10-09T08:19:26.113Z,96012.05
2023-10-09T08:22:12.987Z,96000.16
2023-10-09T08:24:45.221Z,95985.13
2023-10-09T08:27:31.872Z,95987.36
2023-10-09T08:30:24.791Z,95979.22
2023-10-09T08:35:47.971Z,95983.23
2023-10-09T08:38:24.774Z,95976.29
2023-10-09T08:41:00.262Z,95977.71
2023-10-09T08:43:34.316Z,95980.17
2023-10-09T08:46:03.631Z,95970.50
2023-10-09T08:48:32.456Z,95957.70
2023-10-09T08:51:07.664Z,95938.81
2023-10-09T08:53:36.630Z,95935.91
2023-10-09T08:56:05.793Z,95926.86
2023-10-09T08:58:38.455Z,95931.05
2023-10-09T09:01:07.606Z,95924.58
2023-10-09T09:03:46.027Z,95922.85
2023-10-09T09:06:16.118Z,95915.59
2023-10-09T09:08:46.483Z,95912.98
2023-10-09T09:11:24.273Z,95917.48
2023-10-09T09:14:07.712Z,95916.43
2023-10-09T09:16:38.401Z,95927.87
2023-10-09T09:19:10.977Z,95923.70
2023-10-09T09:21:41.961Z,95919.73
2023-10-09T09:24:24.764Z,95923.63
2023-10-09T09:27:01.419Z,95922.04
2023-10-09T09:29:38.994Z,95928.08
2023-10-09T09:32:19.700Z,95916.09
2023-10-09T09:34:58.561Z,95903.94
2023-10-09T09:37:32.736Z,95903.89
2023-10-09T09:40:12.480Z,95901.61
2023-10-09T09:42:46.122Z,95900.36
2023-10-09T09:45:16.738Z,95901.21
2023-10-09T09:47:53.547Z,95902.73
2023-10-09T09:50:30.548Z,95901.83
2023-10-09T09:53:00.582Z,95894.80
2023-10-09T09:55:43.554Z,95892.55
2023-10-09T09:58:21.771Z,95895.49
2023-10-09T10:00:56.632Z,95902.08
2023-10-09T10:03:34.613Z,95902.67
2023-10-09T10:06:11.234Z,95898.86
2023-10-09T10:08:42.368Z,95900.61
2023-10-09T10:11:47.313Z,95896.08
2023-10-09T10:14:32.725Z,95896.56
2023-10-09T10:17:04.568Z,95902.25
2023-10-09T10:20:20.589Z,95896.83
2023-10-09T10:22:49.271Z,95901.19
2023-10-09T10:25:50.436Z,95900.52
2023-10-09T10:28:37.399Z,95899.05
2023-10-09T10:31:08.725Z,95895.30
2023-10-09T10:33:56.435Z,95890.62
2023-10-09T10:36:28.197Z,95884.45
2023-10-09T10:39:20.272Z,95882.67
2023-10-09T10:42:02.234Z,95863.16
2023-10-09T10:44:37.965Z,95849.55
2023-10-09T10:47:24.258Z,95828.42
2023-10-09T10:49:59.810Z,95822.56
2023-10-09T10:52:43.708Z,95824.94
2023-10-09T10:55:40.617Z,95843.77
2023-10-09T10:58:25.955Z,95863.67
2023-10-09T11:00:57.899Z,95879.58
2023-10-09T11:03:46.320Z,95877.98
2023-10-09T11:06:15.566Z,95871.48
2023-10-09T11:08:56.367Z,95861.33
2023-10-09T11:11:32.377Z,95846.36
2023-10-09T11:14:16.596Z,95843.98
2023-10-09T11:16:48.337Z,95841.49
2023-10-09T11:19:28.100Z,95844.10
2023-10-09T11:22:20.899Z,95829.34
2023-10-09T11:25:25.535Z,95820.14
2023-10-09T11:27:57.275Z,95822.27
2023-10-09T11:30:34.297Z,95820.15
2023-10-09T11:33:06.992Z,95807.02
2023-10-09T11:35:38.704Z,95804.84
2023-10-09T11:38:22.508Z,95800.61
2023-10-09T11:40:54.538Z,95795.88
2023-10-09T11:43:46.497Z,95796.73
2023-10-09T11:46:34.890Z,95800.34
2023-10-09T11:49:41.854Z,95790.17
2023-10-09T11:52:11.076Z,95775.75
2023-10-09T11:54:39.471Z,95773.56
2023-10-09T11:57:07.891Z,95770.70
2023-10-09T11:59:39.804Z,95768.13
2023-10-09T12:02:15.527Z,95766.79
2023-10-09T12:04:46.499Z,95769.49
2023-10-09T12:07:16.221Z,95765.40
2023-10-09T12:09:44.569Z,95756.10
2023-10-09T12:12:12.905Z,95757.33
2023-10-09T12:14:41.305Z,95746.67
2023-10-09T12:17:10.164Z,95733.82
2023-10-09T12:19:40.395Z,95731.63
2023-10-09T12:22:12.303Z,95736.98
2023-10-09T12:24:44.622Z,95736.46
2023-10-09T12:27:13.090Z,95731.67
2023-10-09T12:29:48.930Z,95728.57
2023-10-09T12:32:22.374Z,95733.95
2023-10-09T12:34:52.466Z,95730.30
2023-10-09T12:37:22.157Z,95723.98
2023-10-09T12:39:51.523Z,95719.83
2023-10-09T12:42:19.843Z,95715.39
2023-10-09T12:44:49.159Z,95713.34
2023-10-09T12:47:20.703Z,95716.21
2023-10-09T12:49:49.753Z,95713.11
2023-10-09T12:52:18.204Z,95704.89
2023-10-09T12:54:50.040Z,95702.31
2023-10-09T12:57:18.362Z,95695.19
2023-10-09T12:59:49.700Z,95690.11
2023-10-09T13:02:30.275Z,95681.58
2023-10-09T13:05:01.816Z,95670.42
2023-10-09T13:07:30.748Z,95675.32
2023-10-09T13:10:13.500Z,95679.30
2023-10-09T13:12:44.897Z,95675.91
2023-10-09T13:15:13.470Z,95668.88
2023-10-09T13:17:42.816Z,95661.68
2023-10-09T13:20:17.760Z,95651.63
2023-10-09T13:22:49.279Z,95657.52
2023-10-09T13:25:31.760Z,95657.40
2023-10-09T13:28:05.279Z,95654.80
2023-10-09T13:30:41.518Z,95659.22
2023-10-09T13:33:18.475Z,95650.05
2023-10-09T13:35:52.039Z,95650.09
2023-10-09T13:38:20.513Z,95658.45
2023-10-09T13:40:50.835Z,95665.27
2023-10-09T13:43:19.752Z,95662.89
2023-10-09T13:45:51.691Z,95667.61
2023-10-09T13:48:22.613Z,95653.21
2023-10-09T13:51:00.117Z,95643.46
2023-10-09T13:53:29.611Z,95640.10
2023-10-09T13:55:57.925Z,95643.03
2023-10-09T13:58:26.648Z,95638.88
2023-10-09T14:00:55.077Z,95633.02
2023-10-09T14:03:25.184Z,95633.52
2023-10-09T14:05:55.778Z,95632.35
2023-10-09T14:08:24.726Z,95629.56
2023-10-09T14:10:53.455Z,95628.14
2023-10-09T14:13:29.750Z,95622.61
2023-10-09T14:16:01.423Z,95621.03
2023-10-09T14:18:31.430Z,95622.27
2023-10-09T14:21:07.458Z,95620.20
2023-10-09T14:23:36.225Z,95611.64
2023-10-09T14:26:07.707Z,95602.05
2023-10-09T14:28:36.634Z,95593.00
2023-10-09T14:31:06.679Z,95593.90
2023-10-09T14:33:38.071Z,95587.46
2023-10-09T14:36:07.314Z,95580.36
2023-10-09T14:38:39.578Z,95579.61
2023-10-09T14:41:13.089Z,95566.38
2023-10-09T14:43:42.369Z,95561.21
2023-10-09T14:46:32.541Z,95554.65
2023-10-09T14:49:04.967Z,95562.76
2023-10-09T14:51:34.542Z,95563.27
2023-10-09T14:54:08.710Z,95567.82
2023-10-09T14:56:38.891Z,95579.38
2023-10-09T14:59:07.825Z,95579.80
2023-10-09T15:01:36.028Z,95558.27
2023-10-09T15:04:05.187Z,95552.98
2023-10-09T15:06:34.727Z,95554.21
2023-10-09T15:09:09.474Z,95561.95
2023-10-09T15:11:40.005Z,95555.30
2023-10-09T15:14:08.279Z,95545.49
2023-10-09T15:16:39.886Z,95543.38
2023-10-09T15:19:11.095Z,95548.83
2023-10-09T15:21:45.445Z,95556.35
2023-10-09T15:24:19.327Z,95572.73
2023-10-09T15:27:08.517Z,95573.89
2023-10-09T15:29:44.099Z,95576.18
2023-10-09T15:32:16.665Z,95577.41
2023-10-09T15:34:45.359Z,95574.73
2023-10-09T15:37:14.612Z,95579.44
2023-10-09T15:39:44.185Z,95563.58
2023-10-09T15:42:14.800Z,95540.35
2023-10-09T15:44:43.675Z,95536.55
2023-10-09T15:47:13.530Z,95545.10
2023-10-09T15:49:45.219Z,95548.02
2023-10-09T15:52:15.711Z,95540.80
2023-10-09T15:54:44.540Z,95535.40
2023-10-09T15:57:13.912Z,95543.55
2023-10-09T15:59:42.487Z,95556.36
2023-10-09T16:02:12.289Z,95562.25
2023-10-09T16:04:40.802Z,95554.76
2023-10-09T16:07:10.531Z,95545.54
2023-10-09T16:09:41.403Z,95561.63
2023-10-09T16:12:10.814Z,95573.69
2023-10-09T16:14:39.013Z,95574.64
2023-10-09T16:17:07.947Z,95570.69
2023-10-09T16:19:38.360Z,95559.11
2023-10-09T16:22:06.910Z,95558.80
2023-10-09T16:24:39.630Z,95557.84
2023-10-09T16:27:09.357Z,95561.74
2023-10-09T16:29:37.807Z,95568.08
2023-10-09T16:32:08.620Z,95573.19
2023-10-09T16:34:40.171Z,95576.10
2023-10-09T16:37:10.128Z,95578.76
2023-10-09T16:39:40.030Z,95587.92
2023-10-09T16:42:10.893Z,95590.48
2023-10-09T16:44:39.342Z,95601.67
2023-10-09T16:47:09.571Z,95593.02
2023-10-09T16:49:39.967Z,95585.30
2023-10-09T16:52:12.684Z,95591.40
2023-10-09T16:54:41.102Z,95590.97
2023-10-09T16:57:11.722Z,95590.73
2023-10-09T16:59:43.141Z,95591.36
2023-10-09T17:02:14.609Z,95598.96
2023-10-09T17:04:47.787Z,95600.39
2023-10-09T17:07:16.105Z,95597.92
2023-10-09T17:09:48.849Z,95598.70
2023-10-09T17:12:18.927Z,95602.45
2023-10-09T17:14:48.149Z,95601.53
2023-10-09T17:17:16.890Z,95594.14
2023-10-09T17:19:49.582Z,95592.42
2023-10-09T17:22:19.909Z,95590.95
2023-10-09T17:24:48.113Z,95596.02
2023-10-09T17:27:19.295Z,95597.23
2023-10-09T17:29:47.865Z,95604.44
2023-10-09T17:32:16.569Z,95604.38
2023-10-09T17:34:45.293Z,95586.52
2023-10-09T17:37:13.712Z,95571.79
2023-10-09T17:39:42.466Z,95580.70
2023-10-09T17:42:10.748Z,95587.45
2023-10-09T17:44:40.081Z,95577.67
2023-10-09T17:47:08.661Z,95577.26
2023-10-09T17:49:38.276Z,95575.25
2023-10-09T17:52:12.697Z,95570.02
2023-10-09T17:54:41.119Z,95567.76
2023-10-09T17:57:09.635Z,95562.83
2023-10-09T17:59:38.837Z,95562.48
2023-10-09T18:02:07.507Z,95563.50
2023-10-09T18:04:36.681Z,95565.20
2023-10-09T18:07:05.762Z,95567.39
2023-10-09T18:09:34.294Z,95568.95
2023-10-09T18:12:07.142Z,95569.45
2023-10-09T18:14:35.592Z,95573.02
2023-10-09T18:17:04.078Z,95569.92
2023-10-09T18:19:34.212Z,95575.91
2023-10-09T18:22:02.300Z,95575.80
2023-10-09T18:24:30.503Z,95577.06
2023-10-09T18:26:58.852Z,95580.36
2023-10-09T18:29:27.025Z,95587.52
2023-10-09T18:31:55.509Z,95584.42
2023-10-09T18:34:26.945Z,95580.42
2023-10-09T18:36:56.617Z,95586.23
2023-10-09T18:39:25.192Z,95589.61
2023-10-09T18:41:55.264Z,95585.05
2023-10-09T18:44:24.080Z,95577.48
2023-10-09T18:46:55.487Z,95578.23
2023-10-09T18:49:29.191Z,95578.34
2023-10-09T18:51:57.388Z,95580.45
2023-10-09T18:54:26.672Z,95576.29
2023-10-09T18:56:55.241Z,95575.31
2023-10-09T18:59:24.719Z,95575.55
2023-10-09T19:01:54.379Z,95577.88
2023-10-09T19:04:23.963Z,95570.44
2023-10-09T19:06:52.376Z,95574.23
2023-10-09T19:09:24.190Z,95574.21
2023-10-09T19:11:52.696Z,95565.72
2023-10-09T19:14:20.822Z,95566.83
2023-10-09T19:16:49.265Z,95567.65
2023-10-09T19:19:17.494Z,95562.67
2023-10-09T19:21:48.067Z,95569.23
2023-10-09T19:24:16.186Z,95568.22
2023-10-09T19:26:44.274Z,95581.52
2023-10-09T19:29:12.759Z,95588.34
2023-10-09T19:31:43.883Z,95584.25
2023-10-09T19:34:14.848Z,95578.55
2023-10-09T19:36:48.170Z,95583.83
2023-10-09T19:39:18.408Z,95588.59
2023-10-09T19:41:46.894Z,95589.05
2023-10-09T19:44:15.323Z,95587.17
2023-10-09T19:46:45.627Z,95577.08
2023-10-09T19:49:14.264Z,95577.64
2023-10-09T19:51:44.144Z,95581.90
2023-10-09T19:54:12.348Z,95581.02
2023-10-09T19:56:43.875Z,95580.79
2023-10-09T19:59:13.413Z,95587.74
2023-10-09T20:01:42.017Z,95594.95
2023-10-09T20:04:10.555Z,95610.35
2023-10-09T20:06:40.710Z,95611.95
2023-10-09T20:09:13.469Z,95603.47
2023-10-09T20:11:42.078Z,95601.38
2023-10-09T20:14:10.548Z,95601.24
2023-10-09T20:16:39.022Z,95600.86
2023-10-09T20:19:09.664Z,95597.52
2023-10-09T20:21:38.996Z,95603.09
2023-10-09T20:24:07.356Z,95600.61
2023-10-09T20:26:35.930Z,95589.39
2023-10-09T20:29:05.372Z,95582.74
2023-10-09T20:31:33.652Z,95570.92
2023-10-09T20:34:02.348Z,95564.73
2023-10-09T20:36:32.235Z,95568.63
2023-10-09T20:39:00.477Z,95569.88
2023-10-09T20:41:29.770Z,95572.63
2023-10-09T20:43:58.304Z,95578.70
2023-10-09T20:46:26.482Z,95579.14
2023-10-09T20:48:54.533Z,95575.73
2023-10-09T20:51:22.670Z,95568.83
2023-10-09T20:53:50.877Z,95566.00
2023-10-09T20:56:19.172Z,95568.43
2023-10-09T20:58:47.359Z,95569.40
2023-10-09T21:01:16.381Z,95567.41
2023-10-09T21:03:52.909Z,95571.17
2023-10-09T21:06:22.573Z,95576.35
2023-10-09T21:08:51.597Z,95576.04
2023-10-09T21:11:20.681Z,95578.80
2023-10-09T21:13:49.119Z,95581.29
2023-10-09T21:16:17.893Z,95579.89
2023-10-09T21:18:48.491Z,95584.23
2023-10-09T21:21:17.118Z,95580.06
2023-10-09T21:23:46.360Z,95589.34
2023-10-09T21:26:22.835Z,95589.77
2023-10-09T21:28:53.201Z,95598.04
2023-10-09T21:31:24.165Z,95595.58
2023-10-09T21:33:52.633Z,95602.84
2023-10-09T21:36:21.422Z,95597.21
2023-10-09T21:38:50.189Z,95593.88
2023-10-09T21:41:19.348Z,95597.15
2023-10-09T21:43:48.392Z,95595.06
2023-10-09T21:46:16.838Z,95595.77
2023-10-09T21:48:45.221Z,95597.07
2023-10-09T21:51:18.074Z,95594.88
2023-10-09T21:53:46.544Z,95591.77
2023-10-09T21:56:15.683Z,95594.89
2023-10-09T21:58:44.387Z,95599.52
2023-10-09T22:01:13.968Z,95602.35
2023-10-09T22:03:42.976Z,95603.88
2023-10-09T22:06:12.191Z,95605.37
2023-10-09T22:08:40.396Z,95602.88
2023-10-09T22:11:09.039Z,95597.63
2023-10-09T22:13:37.354Z,95600.04
2023-10-09T22:16:10.078Z,95603.42
2023-10-09T22:18:41.424Z,95601.77
2023-10-09T22:21:12.895Z,95591.70
2023-10-09T22:23:47.559Z,95589.92
2023-10-09T22:26:17.405Z,95584.55
2023-10-09T22:28:48.323Z,95587.39
2023-10-09T22:31:17.167Z,95588.50
2023-10-09T22:33:52.407Z,95592.02
2023-10-09T22:36:34.598Z,95584.09
2023-10-09T22:39:22.356Z,95582.48
2023-10-09T22:41:51.622Z,95578.65
2023-10-09T22:44:20.013Z,95580.30
2023-10-09T22:46:48.556Z,95580.33
2023-10-09T22:49:17.910Z,95583.22
2023-10-09T22:51:52.254Z,95584.03
2023-10-09T22:54:31.494Z,95589.27
2023-10-09T22:56:59.729Z,95593.66
2023-10-09T22:59:30.695Z,95594.91
2023-10-09T23:02:02.368Z,95599.98
2023-10-09T23:04:40.232Z,95603.59
2023-10-09T23:07:18.058Z,95602.01
2023-10-09T23:09:55.479Z,95597.63
2023-10-09T23:12:26.715Z,95594.73
2023-10-09T23:14:56.828Z,95595.82
2023-10-09T23:17:43.970Z,95594.09
2023-10-09T23:20:19.256Z,95592.94
2023-10-09T23:22:50.567Z,95594.80
2023-10-09T23:25:31.389Z,95590.58
2023-10-09T23:28:37.834Z,95584.53
2023-10-09T23:31:45.871Z,95590.66
2023-10-09T23:34:20.916Z,95596.11
2023-10-09T23:36:49.501Z,95594.75
2023-10-09T23:39:37.583Z,95591.83
2023-10-09T23:42:16.598Z,95593.23
2023-10-09T23:44:47.614Z,95591.44
2023-10-09T23:47:18.419Z,95590.11
2023-10-09T23:49:51.571Z,95587.89
2023-10-09T23:52:19.777Z,95584.07
2023-10-09T23:54:50.889Z,95586.97
2023-10-09T23:57:19.354Z,95587.84
2023-10-09T23:59:51.958Z,95592.02
